This is the latest recevied weather packets stored in our database for station/object KC5DAQ-24. If no packets are shown the sender has not sent any weather packets the latest 1 day(s).
| Time | Temp. | Humidity | Pressure | Rain* | Wind** | Luminosity | Snow |
|---|---|---|---|---|---|---|---|
| 1778013683 | 27.78° C | 79% | 1006.7 hPa | 0 mm | 2.68 m/s, 203° | 292 W/m² | - |
| 1778013623 | 27.78° C | 79% | 1006.7 hPa | 0 mm | 2.68 m/s, 203° | 292 W/m² | - |
| 1778013561 | 27.78° C | 79% | 1006.6 hPa | 0 mm | 2.68 m/s, 203° | 292 W/m² | - |
| 1778013502 | 27.78° C | 79% | 1006.6 hPa | 0 mm | 2.68 m/s, 203° | 292 W/m² | - |
| 1778013441 | 27.78° C | 79% | 1006.6 hPa | 0 mm | 2.68 m/s, 203° | 292 W/m² | - |
| 1778013383 | 27.78° C | 79% | 1006.7 hPa | 0 mm | 2.68 m/s, 203° | 292 W/m² | - |
| 1778013322 | 27.78° C | 79% | 1006.7 hPa | 0 mm | 2.68 m/s, 203° | 292 W/m² | - |
| 1778013262 | 27.78° C | 79% | 1006.8 hPa | 0 mm | 2.68 m/s, 203° | 292 W/m² | - |
| 1778013202 | 27.78° C | 79% | 1006.8 hPa | 0 mm | 2.68 m/s, 186° | 649 W/m² | - |
| 1778013142 | 27.78° C | 79% | 1006.9 hPa | 0 mm | 2.24 m/s, 209° | 649 W/m² | - |
| 1778013080 | 27.78° C | 79% | 1006.9 hPa | 0 mm | 2.24 m/s, 230° | 288 W/m² | - |
| 1778013020 | 27.78° C | 79% | 1006.9 hPa | 0 mm | 2.24 m/s, 217° | 244 W/m² | - |
| 1778012962 | 27.78° C | 78% | 1006.9 hPa | 0 mm | 2.68 m/s, 203° | 158 W/m² | - |
| 1778012902 | 28.33° C | 78% | 1006.8 hPa | 0 mm | 0.89 m/s, 210° | 158 W/m² | - |
| 1778012842 | 28.33° C | 78% | 1006.9 hPa | 0 mm | 0.89 m/s, 210° | 158 W/m² | - |
| 1778012781 | 28.33° C | 78% | 1007 hPa | 0 mm | 0.89 m/s, 210° | 158 W/m² | - |
| 1778012722 | 28.33° C | 78% | 1006.9 hPa | 0 mm | 0.89 m/s, 210° | 158 W/m² | - |
| 1778012661 | 28.33° C | 78% | 1007 hPa | 0 mm | 0.89 m/s, 210° | 158 W/m² | - |
| 1778012600 | 28.33° C | 78% | 1007 hPa | 0 mm | 0.89 m/s, 212° | 165 W/m² | - |
| 1778012541 | 28.33° C | 78% | 1007 hPa | 0 mm | 1.79 m/s, 212° | 165 W/m² | - |
| 1778012480 | 28.33° C | 77% | 1007 hPa | 0 mm | 2.24 m/s, 212° | 181 W/m² | - |
| 1778012420 | 28.33° C | 77% | 1007.1 hPa | 0 mm | 2.24 m/s, 230° | 179 W/m² | - |
| 1778012361 | 28.33° C | 77% | 1007 hPa | 0 mm | 3.13 m/s, 240° | 164 W/m² | - |
| 1778012299 | 28.33° C | 80% | 1007.1 hPa | 0 mm | 3.58 m/s, 213° | - | - |
| 1778012241 | 28.33° C | 80% | 1007.1 hPa | - | 2.68 m/s, 223° | - | - |
* Rain latest hour (hover to see other rain measurements)
** Current wind speed in m/s (hover to see current wind gust speed)